createdAt,value
2022-12-22T00:00:55.375Z,83.17
2022-12-22T00:03:37.999Z,83.18
2022-12-22T00:06:25.315Z,83.33
2022-12-22T00:09:07.644Z,83.50
2022-12-22T00:11:50.102Z,83.51
2022-12-22T00:14:32.229Z,83.53
2022-12-22T00:17:17.585Z,83.58
2022-12-22T00:20:00.041Z,83.85
2022-12-22T00:22:42.252Z,83.72
2022-12-22T00:25:30.137Z,83.80
2022-12-22T00:28:11.907Z,83.86
2022-12-22T00:30:53.933Z,83.82
2022-12-22T00:33:36.561Z,83.90
2022-12-22T00:36:20.411Z,83.73
2022-12-22T00:39:02.803Z,83.80
2022-12-22T00:41:45.077Z,83.74
2022-12-22T00:44:27.312Z,83.81
2022-12-22T00:47:09.587Z,83.84
2022-12-22T00:49:52.553Z,83.90
2022-12-22T00:52:37.823Z,83.84
2022-12-22T00:55:28.765Z,83.91
2022-12-22T00:58:11.116Z,83.96
2022-12-22T01:00:53.545Z,83.63
2022-12-22T01:03:35.956Z,83.80
2022-12-22T01:06:18.508Z,83.65
2022-12-22T01:09:01.483Z,83.84
2022-12-22T01:11:43.616Z,83.92
2022-12-22T01:14:31.071Z,84.23
2022-12-22T01:17:13.421Z,84.15
2022-12-22T01:19:56.703Z,84.21
2022-12-22T01:22:39.062Z,84.11
2022-12-22T01:25:28.456Z,84.29
2022-12-22T01:28:10.259Z,84.08
2022-12-22T01:30:52.771Z,84.03
2022-12-22T01:33:34.985Z,83.96
2022-12-22T01:36:17.197Z,83.90
2022-12-22T01:38:59.662Z,83.77
2022-12-22T01:41:42.796Z,83.88
2022-12-22T01:44:33.315Z,83.59
2022-12-22T01:47:42.779Z,83.51
2022-12-22T01:50:25.070Z,83.32
2022-12-22T01:53:07.522Z,83.27
2022-12-22T01:55:49.813Z,83.13
2022-12-22T01:58:41.196Z,83.05
2022-12-22T02:01:23.594Z,83.03
2022-12-22T02:04:05.984Z,82.95
2022-12-22T02:06:59.828Z,83.01
2022-12-22T02:09:55.611Z,82.96
2022-12-22T02:12:52.817Z,82.81
2022-12-22T02:15:40.674Z,82.86
2022-12-22T02:18:30.571Z,82.61
2022-12-22T02:21:22.677Z,82.54
2022-12-22T02:24:20.264Z,82.79
2022-12-22T02:27:07.676Z,82.87
2022-12-22T02:29:54.722Z,82.96
2022-12-22T02:32:39.997Z,83.05
2022-12-22T02:35:31.457Z,83.02
2022-12-22T02:38:24.533Z,83.02
2022-12-22T02:41:15.056Z,82.97
2022-12-22T02:44:11.324Z,83.01
2022-12-22T02:47:06.762Z,82.84
2022-12-22T02:50:05.995Z,82.88
2022-12-22T02:52:52.532Z,83.02
2022-12-22T02:55:35.709Z,83.04
2022-12-22T02:58:18.021Z,82.99
2022-12-22T03:01:00.455Z,82.98
2022-12-22T03:03:43.225Z,83.07
2022-12-22T03:06:25.493Z,83.13
2022-12-22T03:09:07.871Z,83.03
2022-12-22T03:11:50.205Z,83.00
2022-12-22T03:14:32.350Z,82.94
2022-12-22T03:17:14.646Z,82.96
2022-12-22T03:19:56.599Z,82.84
2022-12-22T03:22:38.777Z,82.90
2022-12-22T03:25:21.532Z,83.04
2022-12-22T03:27:48.244Z,82.85
2022-12-22T03:30:15.301Z,82.97
2022-12-22T03:32:42.054Z,83.13
2022-12-22T03:35:09.090Z,83.23
2022-12-22T03:37:35.943Z,83.38
2022-12-22T03:40:02.704Z,83.11
2022-12-22T03:42:44.504Z,82.94
2022-12-22T03:45:31.219Z,83.01
2022-12-22T03:47:58.020Z,82.72
2022-12-22T03:50:24.807Z,82.77
2022-12-22T03:52:51.609Z,82.80
2022-12-22T03:55:18.422Z,82.94
2022-12-22T03:57:45.087Z,82.68
2022-12-22T04:00:12.113Z,82.81
2022-12-22T04:02:38.986Z,82.91
2022-12-22T04:05:06.285Z,82.89
2022-12-22T04:07:33.129Z,82.93
2022-12-22T04:10:15.237Z,83.03
2022-12-22T04:12:57.655Z,83.01
2022-12-22T04:15:27.422Z,83.43
2022-12-22T04:17:55.109Z,83.25
2022-12-22T04:20:26.812Z,83.28
2022-12-22T04:22:56.056Z,83.32
2022-12-22T04:25:24.368Z,83.26
2022-12-22T04:27:51.262Z,83.21
2022-12-22T04:30:18.831Z,83.25
2022-12-22T04:32:45.589Z,83.20
2022-12-22T04:35:12.367Z,83.36
2022-12-22T04:37:39.108Z,83.40
2022-12-22T04:40:06.491Z,83.38
2022-12-22T04:42:33.576Z,83.26
2022-12-22T04:45:00.278Z,83.34
2022-12-22T04:47:26.985Z,83.37
2022-12-22T04:49:55.732Z,83.56
2022-12-22T04:52:23.012Z,83.85
2022-12-22T04:54:49.800Z,83.93
2022-12-22T04:57:16.797Z,83.96
2022-12-22T04:59:43.575Z,84.13
2022-12-22T05:02:10.906Z,84.18
2022-12-22T05:04:37.765Z,84.07
2022-12-22T05:07:05.062Z,84.20
2022-12-22T05:09:31.752Z,84.11
2022-12-22T05:11:58.469Z,84.19
2022-12-22T05:14:25.369Z,84.13
2022-12-22T05:16:52.123Z,84.17
2022-12-22T05:19:19.439Z,84.18
2022-12-22T05:21:46.246Z,84.20
2022-12-22T05:24:13.041Z,83.99
2022-12-22T05:26:39.755Z,83.77
2022-12-22T05:29:06.501Z,83.46
2022-12-22T05:31:34.843Z,83.44
2022-12-22T05:34:01.574Z,83.18
2022-12-22T05:36:28.326Z,83.03
2022-12-22T05:38:55.061Z,83.07
2022-12-22T05:41:21.747Z,83.25
2022-12-22T05:43:48.456Z,83.07
2022-12-22T05:46:15.239Z,83.02
2022-12-22T05:48:42.081Z,83.08
2022-12-22T05:51:09.928Z,82.81
2022-12-22T05:53:37.970Z,82.74
2022-12-22T05:56:05.800Z,83.10
2022-12-22T05:58:33.263Z,82.94
2022-12-22T06:01:01.233Z,83.05
2022-12-22T06:03:29.268Z,82.73
2022-12-22T06:05:56.709Z,82.87
2022-12-22T06:08:23.938Z,82.53
2022-12-22T06:10:51.250Z,82.53
2022-12-22T06:13:17.958Z,82.78
2022-12-22T06:15:44.783Z,82.71
2022-12-22T06:18:11.565Z,82.51
2022-12-22T06:20:38.333Z,82.38
2022-12-22T06:23:05.091Z,82.44
2022-12-22T06:25:32.034Z,82.06
2022-12-22T06:27:58.971Z,82.08
2022-12-22T06:30:32.658Z,82.22
2022-12-22T06:33:00.334Z,82.29
2022-12-22T06:35:27.081Z,82.73
2022-12-22T06:37:53.844Z,83.23
2022-12-22T06:40:20.722Z,83.14
2022-12-22T06:43:08.264Z,83.06
2022-12-22T06:45:39.170Z,83.14
2022-12-22T06:48:06.914Z,83.07
2022-12-22T06:50:33.752Z,83.19
2022-12-22T06:53:01.044Z,83.04
2022-12-22T06:55:27.942Z,83.27
2022-12-22T06:57:54.815Z,83.40
2022-12-22T07:00:21.957Z,82.92
2022-12-22T07:02:48.872Z,82.54
2022-12-22T07:05:16.018Z,82.63
2022-12-22T07:07:42.952Z,82.73
2022-12-22T07:10:10.142Z,82.71
2022-12-22T07:12:36.910Z,82.78
2022-12-22T07:15:04.205Z,83.14
2022-12-22T07:17:30.908Z,83.08
2022-12-22T07:19:57.625Z,83.08
2022-12-22T07:22:29.870Z,82.82
2022-12-22T07:24:58.622Z,82.32
2022-12-22T07:27:25.668Z,82.34
2022-12-22T07:29:52.414Z,82.32
2022-12-22T07:32:19.122Z,82.35
2022-12-22T07:34:46.163Z,82.46
2022-12-22T07:37:13.844Z,82.22
2022-12-22T07:39:40.799Z,82.50
2022-12-22T07:42:22.988Z,82.43
2022-12-22T07:44:49.688Z,82.57
2022-12-22T07:47:16.405Z,82.38
2022-12-22T07:49:58.839Z,82.61
2022-12-22T07:52:25.628Z,82.74
2022-12-22T07:54:52.346Z,82.50
2022-12-22T07:57:19.336Z,82.72
2022-12-22T07:59:46.107Z,82.09
2022-12-22T08:02:13.953Z,81.89
2022-12-22T08:04:40.855Z,81.24
2022-12-22T08:07:07.706Z,80.61
2022-12-22T08:09:34.453Z,80.28
2022-12-22T08:12:01.218Z,79.93
2022-12-22T08:14:28.036Z,79.78
2022-12-22T08:16:54.810Z,79.16
2022-12-22T08:19:21.590Z,79.01
2022-12-22T08:21:52.906Z,78.81
2022-12-22T08:24:20.659Z,78.69
2022-12-22T08:26:50.649Z,79.15
2022-12-22T08:29:20.184Z,78.61
2022-12-22T08:31:47.033Z,78.71
2022-12-22T08:34:16.619Z,78.14
2022-12-22T08:36:47.772Z,76.70
2022-12-22T08:39:16.387Z,73.75
2022-12-22T08:41:50.349Z,71.05
2022-12-22T08:44:21.899Z,69.76
2022-12-22T08:46:49.518Z,69.33
2022-12-22T08:49:17.115Z,67.98
2022-12-22T08:51:44.784Z,67.28
2022-12-22T08:54:12.259Z,66.36
2022-12-22T08:56:39.353Z,66.06
2022-12-22T08:59:07.956Z,65.55
2022-12-22T09:01:38.595Z,64.98
2022-12-22T09:04:07.154Z,64.38
2022-12-22T09:06:40.637Z,64.26
2022-12-22T09:09:09.505Z,64.35
2022-12-22T09:11:36.360Z,63.96
2022-12-22T09:14:03.328Z,64.10
2022-12-22T09:16:32.456Z,64.60
2022-12-22T09:18:59.675Z,64.82
2022-12-22T09:21:27.252Z,65.50
2022-12-22T09:23:54.913Z,65.30
2022-12-22T09:26:23.433Z,65.15
2022-12-22T09:28:51.120Z,64.79
2022-12-22T09:31:20.809Z,64.30
2022-12-22T09:33:48.067Z,63.35
2022-12-22T09:36:19.745Z,63.09
2022-12-22T09:38:47.355Z,62.90
2022-12-22T09:41:19.485Z,62.34
2022-12-22T09:43:47.041Z,61.72
2022-12-22T09:46:21.908Z,61.95
2022-12-22T09:48:49.352Z,61.98
2022-12-22T09:51:22.697Z,61.72
2022-12-22T09:53:58.525Z,60.98
2022-12-22T09:56:27.269Z,59.76
2022-12-22T09:58:54.096Z,58.51
2022-12-22T10:01:28.473Z,57.86
2022-12-22T10:04:04.765Z,57.25
2022-12-22T10:06:40.667Z,57.10
2022-12-22T10:09:46.125Z,57.47
2022-12-22T10:12:06.753Z,56.95
2022-12-22T10:14:38.358Z,56.67
2022-12-22T10:17:22.122Z,56.50
2022-12-22T10:19:51.724Z,55.88
2022-12-22T10:22:27.551Z,55.38
2022-12-22T10:24:54.747Z,54.63
2022-12-22T10:27:29.291Z,53.90
2022-12-22T10:30:17.940Z,54.02
2022-12-22T10:33:05.387Z,54.33
2022-12-22T10:35:47.514Z,54.23
2022-12-22T10:38:29.338Z,54.21
2022-12-22T10:41:02.896Z,54.28
2022-12-22T10:43:34.186Z,54.52
2022-12-22T10:46:02.350Z,54.28
2022-12-22T10:48:32.720Z,54.44
2022-12-22T10:51:00.382Z,54.98
2022-12-22T10:53:43.286Z,55.20
2022-12-22T10:56:20.978Z,55.77
2022-12-22T10:58:51.223Z,56.73
2022-12-22T11:01:26.368Z,57.36
2022-12-22T11:03:53.367Z,57.86
2022-12-22T11:06:20.542Z,57.93
2022-12-22T11:08:51.544Z,57.34
2022-12-22T11:11:26.254Z,56.89
2022-12-22T11:14:03.038Z,56.40
2022-12-22T11:16:40.275Z,55.64
2022-12-22T11:19:29.749Z,55.19
2022-12-22T11:22:05.461Z,55.03
2022-12-22T11:24:48.476Z,54.56
2022-12-22T11:27:46.079Z,54.29
2022-12-22T11:30:19.869Z,53.56
2022-12-22T11:32:54.066Z,53.60
2022-12-22T11:35:43.744Z,53.70
2022-12-22T11:38:15.759Z,53.16
2022-12-22T11:40:46.781Z,53.16
2022-12-22T11:43:29.751Z,53.86
2022-12-22T11:46:27.911Z,54.85
2022-12-22T11:49:11.526Z,56.11
2022-12-22T11:51:45.813Z,57.30
2022-12-22T11:54:42.956Z,58.45
2022-12-22T11:57:11.015Z,59.53
2022-12-22T11:59:49.391Z,60.30
2022-12-22T12:02:32.697Z,60.84
2022-12-22T12:05:22.757Z,61.74
2022-12-22T12:07:54.888Z,62.55
2022-12-22T12:10:52.184Z,63.29
2022-12-22T12:13:28.574Z,64.57
2022-12-22T12:16:17.770Z,65.56
2022-12-22T12:18:44.651Z,66.03
2022-12-22T12:21:28.355Z,66.39
2022-12-22T12:23:59.705Z,66.83
2022-12-22T12:26:32.297Z,66.65
2022-12-22T12:29:24.434Z,66.58
2022-12-22T12:32:06.599Z,66.30
2022-12-22T12:34:38.056Z,65.85
2022-12-22T12:37:09.338Z,65.77
2022-12-22T12:39:50.772Z,65.74
2022-12-22T12:42:26.430Z,65.61
2022-12-22T12:44:53.953Z,65.81
2022-12-22T12:47:25.263Z,65.92
2022-12-22T12:50:00.335Z,66.27
2022-12-22T12:52:48.786Z,66.82
2022-12-22T12:55:33.363Z,67.65
2022-12-22T12:58:03.903Z,67.80
2022-12-22T13:00:34.173Z,67.93
2022-12-22T13:03:04.609Z,67.84
2022-12-22T13:05:47.968Z,68.21
2022-12-22T13:08:16.455Z,68.41
2022-12-22T13:10:53.846Z,68.59
2022-12-22T13:13:21.723Z,68.47
2022-12-22T13:16:05.074Z,68.38
2022-12-22T13:18:35.228Z,69.23
2022-12-22T13:21:42.583Z,70.05
2022-12-22T13:24:23.626Z,70.24
2022-12-22T13:26:47.102Z,69.98
2022-12-22T13:29:37.509Z,70.47
2022-12-22T13:32:19.136Z,70.35
2022-12-22T13:35:29.210Z,70.43
2022-12-22T13:37:42.980Z,71.13
2022-12-22T13:40:09.915Z,71.38
2022-12-22T13:42:54.564Z,71.41
2022-12-22T13:45:43.569Z,71.83
2022-12-22T13:48:29.052Z,72.34
2022-12-22T13:50:59.172Z,72.94
2022-12-22T13:54:07.003Z,73.41
2022-12-22T13:56:25.866Z,73.80
2022-12-22T13:58:58.721Z,73.93
2022-12-22T14:01:26.192Z,74.50
2022-12-22T14:04:00.653Z,74.96
2022-12-22T14:06:36.577Z,75.12
2022-12-22T14:09:11.603Z,75.23
2022-12-22T14:11:38.740Z,75.40
2022-12-22T14:14:09.738Z,75.31
2022-12-22T14:16:44.112Z,75.35
2022-12-22T14:19:15.032Z,75.08
2022-12-22T14:21:45.649Z,75.34
2022-12-22T14:24:19.108Z,75.67
2022-12-22T14:26:46.703Z,76.03
2022-12-22T14:29:19.507Z,75.92
2022-12-22T14:31:55.931Z,75.82
2022-12-22T14:34:34.353Z,75.43
2022-12-22T14:37:02.190Z,75.88
2022-12-22T14:39:32.180Z,76.05
2022-12-22T14:42:02.719Z,76.42
2022-12-22T14:44:33.278Z,76.96
2022-12-22T14:47:18.332Z,77.07
2022-12-22T14:49:55.774Z,77.19
2022-12-22T14:52:43.517Z,77.21
2022-12-22T14:55:22.271Z,77.25
2022-12-22T14:57:54.476Z,77.14
2022-12-22T15:00:22.202Z,77.09
2022-12-22T15:02:51.943Z,77.37
2022-12-22T15:05:28.532Z,77.13
2022-12-22T15:08:06.734Z,77.20
2022-12-22T15:10:44.228Z,77.24
2022-12-22T15:13:22.918Z,77.19
2022-12-22T15:15:51.415Z,77.78
2022-12-22T15:18:24.309Z,77.53
2022-12-22T15:20:51.168Z,77.47
2022-12-22T15:23:17.940Z,77.74
2022-12-22T15:25:46.201Z,78.57
2022-12-22T15:28:13.190Z,78.43
2022-12-22T15:30:40.452Z,77.70
2022-12-22T15:33:13.680Z,77.57
2022-12-22T15:35:41.680Z,77.84
2022-12-22T15:38:15.453Z,78.26
2022-12-22T15:40:42.389Z,78.81
2022-12-22T15:43:28.829Z,79.50
2022-12-22T15:45:57.878Z,79.67
2022-12-22T15:48:30.109Z,80.04
2022-12-22T15:50:57.593Z,80.04
2022-12-22T15:53:24.369Z,80.03
2022-12-22T15:55:54.543Z,80.08
2022-12-22T15:58:24.297Z,79.94
2022-12-22T16:00:50.965Z,79.96
2022-12-22T16:03:17.744Z,79.79
2022-12-22T16:05:45.204Z,80.22
2022-12-22T16:08:18.151Z,79.87
2022-12-22T16:10:46.887Z,79.95
2022-12-22T16:13:15.923Z,80.33
2022-12-22T16:15:42.958Z,80.01
2022-12-22T16:18:12.401Z,79.73
2022-12-22T16:20:42.659Z,79.83
2022-12-22T16:23:18.209Z,79.89
2022-12-22T16:25:46.972Z,79.80
2022-12-22T16:28:19.083Z,79.71
2022-12-22T16:30:46.241Z,79.69
2022-12-22T16:33:13.554Z,79.45
2022-12-22T16:35:41.199Z,79.13
2022-12-22T16:38:13.020Z,79.32
2022-12-22T16:40:46.179Z,79.30
2022-12-22T16:46:11.970Z,80.10
2022-12-22T16:48:42.416Z,80.20
2022-12-22T16:51:18.034Z,80.37
2022-12-22T16:53:44.795Z,80.47
2022-12-22T16:56:17.910Z,80.59
2022-12-22T16:58:45.874Z,80.50
2022-12-22T17:01:36.978Z,80.90
2022-12-22T17:04:08.055Z,80.62
2022-12-22T17:06:35.548Z,81.00
2022-12-22T17:09:04.950Z,80.79
2022-12-22T17:11:32.820Z,80.84
2022-12-22T17:14:06.831Z,80.93
2022-12-22T17:16:33.937Z,80.75
2022-12-22T17:19:00.711Z,80.70
2022-12-22T17:21:29.788Z,80.85
2022-12-22T17:24:03.903Z,80.72
2022-12-22T17:26:33.825Z,80.82
2022-12-22T17:29:00.819Z,80.28
2022-12-22T17:31:27.789Z,80.37
2022-12-22T17:33:54.516Z,80.58
2022-12-22T17:36:33.358Z,80.79
2022-12-22T17:39:01.557Z,80.36
2022-12-22T17:41:28.675Z,80.37
2022-12-22T17:43:55.507Z,80.58
2022-12-22T17:46:22.898Z,80.26
2022-12-22T17:48:50.046Z,80.52
2022-12-22T17:51:22.849Z,80.28
2022-12-22T17:53:50.589Z,80.15
2022-12-22T17:56:20.596Z,80.52
2022-12-22T17:58:48.090Z,80.23
2022-12-22T18:01:32.170Z,80.08
2022-12-22T18:03:59.455Z,80.19
2022-12-22T18:06:32.708Z,80.01
2022-12-22T18:08:59.519Z,79.93
2022-12-22T18:11:26.541Z,80.03
2022-12-22T18:13:54.116Z,80.11
2022-12-22T18:16:23.208Z,79.60
2022-12-22T18:18:50.114Z,79.63
2022-12-22T18:21:21.555Z,79.49
2022-12-22T18:23:50.861Z,79.80
2022-12-22T18:26:23.164Z,79.48
2022-12-22T18:29:06.299Z,79.66
2022-12-22T18:31:33.188Z,79.80
2022-12-22T18:33:59.998Z,79.61
2022-12-22T18:36:31.410Z,79.44
2022-12-22T18:39:00.708Z,79.47
2022-12-22T18:41:32.155Z,79.51
2022-12-22T18:43:59.251Z,79.48
2022-12-22T18:46:26.955Z,79.52
2022-12-22T18:48:55.224Z,79.55
2022-12-22T18:51:25.678Z,79.61
2022-12-22T18:53:54.689Z,79.51
2022-12-22T18:56:22.506Z,79.23
2022-12-22T18:58:49.237Z,79.30
2022-12-22T19:01:21.198Z,79.18
2022-12-22T19:03:48.696Z,79.03
2022-12-22T19:06:18.603Z,79.24
2022-12-22T19:08:47.308Z,78.92
2022-12-22T19:11:18.156Z,79.05
2022-12-22T19:13:48.766Z,78.99
2022-12-22T19:16:19.099Z,79.02
2022-12-22T19:18:45.942Z,79.14
2022-12-22T19:21:14.754Z,78.74
2022-12-22T19:23:42.382Z,78.77
2022-12-22T19:26:20.690Z,78.25
2022-12-22T19:28:52.222Z,78.10
2022-12-22T19:31:25.975Z,77.90
2022-12-22T19:33:54.552Z,77.88
2022-12-22T19:36:25.848Z,78.27
2022-12-22T19:39:03.290Z,78.20
2022-12-22T19:41:43.669Z,78.45
2022-12-22T19:44:16.467Z,78.50
2022-12-22T19:46:43.252Z,78.61
2022-12-22T19:49:20.361Z,78.84
2022-12-22T19:51:47.169Z,78.87
2022-12-22T19:54:14.250Z,79.01
2022-12-22T19:56:44.115Z,79.06
2022-12-22T19:59:25.570Z,78.91
2022-12-22T20:01:56.168Z,79.20
2022-12-22T20:04:23.089Z,79.09
2022-12-22T20:06:49.906Z,79.29
2022-12-22T20:09:16.910Z,79.21
2022-12-22T20:11:44.811Z,79.42
2022-12-22T20:14:19.291Z,79.54
2022-12-22T20:16:46.301Z,80.05
2022-12-22T20:19:14.520Z,80.47
2022-12-22T20:21:42.145Z,81.00
2022-12-22T20:24:19.056Z,81.34
2022-12-22T20:26:50.266Z,81.43
2022-12-22T20:29:20.692Z,81.73
2022-12-22T20:31:47.764Z,81.64
2022-12-22T20:34:14.616Z,81.62
2022-12-22T20:36:43.226Z,81.30
2022-12-22T20:39:14.248Z,81.48
2022-12-22T20:41:43.415Z,81.43
2022-12-22T20:44:12.444Z,81.33
2022-12-22T20:46:39.819Z,81.53
2022-12-22T20:49:15.122Z,81.93
2022-12-22T20:51:43.010Z,82.02
2022-12-22T20:54:13.997Z,82.23
2022-12-22T20:56:41.525Z,82.54
2022-12-22T20:59:24.144Z,82.36
2022-12-22T21:02:07.370Z,82.50
2022-12-22T21:04:34.208Z,82.50
2022-12-22T21:07:00.974Z,82.61
2022-12-22T21:09:28.098Z,83.03
2022-12-22T21:11:54.805Z,83.36
2022-12-22T21:14:21.641Z,83.45
2022-12-22T21:16:48.819Z,83.11
2022-12-22T21:19:30.957Z,82.79
2022-12-22T21:21:57.699Z,82.94
2022-12-22T21:24:24.412Z,83.02
2022-12-22T21:26:55.132Z,83.01
2022-12-22T21:29:24.879Z,83.36
2022-12-22T21:31:51.971Z,83.83
2022-12-22T21:34:20.528Z,84.03
2022-12-22T21:36:52.288Z,83.88
2022-12-22T21:39:26.071Z,83.76
2022-12-22T21:42:00.014Z,84.08
2022-12-22T21:44:28.049Z,84.31
2022-12-22T21:46:56.379Z,84.44
2022-12-22T21:49:26.476Z,84.27
2022-12-22T21:51:54.474Z,84.05
2022-12-22T21:54:23.668Z,84.24
2022-12-22T21:56:51.587Z,83.65
2022-12-22T21:59:18.605Z,83.32
2022-12-22T22:01:45.578Z,83.01
2022-12-22T22:04:13.654Z,83.13
2022-12-22T22:06:40.578Z,82.68
2022-12-22T22:09:07.549Z,82.61
2022-12-22T22:11:54.846Z,82.28
2022-12-22T22:14:21.852Z,82.21
2022-12-22T22:16:48.774Z,82.07
2022-12-22T22:19:17.841Z,81.79
2022-12-22T22:21:46.309Z,81.86
2022-12-22T22:24:13.171Z,81.78
2022-12-22T22:26:40.150Z,81.61
2022-12-22T22:29:06.908Z,81.81
2022-12-22T22:31:33.841Z,81.87
2022-12-22T22:34:00.777Z,81.69
2022-12-22T22:36:28.505Z,81.71
2022-12-22T22:38:55.527Z,81.72
2022-12-22T22:41:22.230Z,82.11
2022-12-22T22:43:48.937Z,82.07
2022-12-22T22:46:15.737Z,82.38
2022-12-22T22:48:42.502Z,82.68
2022-12-22T22:51:10.803Z,82.68
2022-12-22T22:53:37.573Z,83.06
2022-12-22T22:56:04.581Z,83.07
2022-12-22T22:58:31.568Z,83.11
2022-12-22T23:01:14.654Z,83.19
2022-12-22T23:03:41.845Z,83.41
2022-12-22T23:06:11.938Z,83.37
2022-12-22T23:08:39.088Z,83.37
2022-12-22T23:11:10.577Z,83.61
2022-12-22T23:13:37.291Z,83.59
2022-12-22T23:16:04.269Z,83.81
2022-12-22T23:18:32.334Z,83.86
2022-12-22T23:21:01.266Z,83.85
2022-12-22T23:23:29.289Z,84.19
2022-12-22T23:25:56.043Z,84.17
2022-12-22T23:28:22.962Z,84.43
2022-12-22T23:30:51.299Z,84.72
2022-12-22T23:33:20.459Z,85.13
2022-12-22T23:35:49.799Z,84.93
2022-12-22T23:38:18.621Z,85.13
2022-12-22T23:40:54.498Z,85.26
2022-12-22T23:43:21.821Z,85.10
2022-12-22T23:45:48.559Z,85.42
2022-12-22T23:48:15.681Z,85.64
2022-12-22T23:50:45.814Z,85.77
2022-12-22T23:53:12.542Z,85.70
2022-12-22T23:55:44.718Z,85.96
2022-12-22T23:58:11.976Z,85.75
